Aniwa, Wisconsin
Current Conditions -  °F | °C
As of 10:55 PM on Friday 21 Nov 2014 (Local Time) from KAIG Reporting Station
Overcast Overcast  
Wind Chill: 13°   Ceiling: 1900
Heat Index: 25°   Visibility: 10mi
Dew Point: 15°   Wind: 14mph
Humidity: 66%   Direction: 220°SW
Pressure: 29.94"   Gusts: NA
Location:  45.01°N, 89.21°W
Report Text: KAIG 220455Z AUTO 22012KT 10SM OVC019 M04/M10 A2994 RMK AO2 T10411096
Loading
Personal Weather Stations






























Interactive Weather Map New forecast layout! Learn more

10-Day Weather Forecast

Advertisements
Track Severe Weather on mobile